Latest Weather Observations for Dum In Mirrie

IDD60801

Issued at 11:11 pm CST Sunday 17 February 2019 (issued every 10 minutes, with the page automatically refreshed every 10 minutes)

About weather observations | Map of weather stations | Latest weather observations for NT | Other Formats
Station Details ID: 014277 Name: DUM IN MIRRIE AIRSTRIP Lat: -12.63 Lon: 130.37 Height: 3.5 m
Data from the previous 72 hours. | See also: Recent months at Dum In Mirrie
Date/Time
CST
Temp
°C
App
Temp
°C
Dew
Point
°C
Rel
Hum
%
Delta-T
°C
Wind Press
QNH
hPa
Press
MSL
hPa
Rain since
9am
mm
Dir  Spd
km/h
Gust
km/h
Spd
kts
Gust
kts
17/11:00pm 27.3 33.8 25.1 88 1.5 CALM 0 0 0 0 1011.0 1011.0 0.0
17/10:30pm 27.7 34.2 25.1 86 1.8 CALM 0 0 0 0 1011.0 1011.0 0.0
17/10:00pm 28.2 34.5 24.8 82 2.4 CALM 0 0 0 0 1010.6 1010.6 0.0
17/09:30pm 28.6 35.1 25.0 81 2.5 CALM 0 4 0 2 1010.2 1010.2 0.0
17/09:00pm 28.4 34.0 24.8 81 2.5 WSW 4 6 2 3 1009.6 1009.6 0.0
17/08:30pm 27.5 33.4 24.1 82 2.4 CALM 0 2 0 1 1009.4 1009.4 0.0
17/08:00pm 27.4 32.3 23.6 80 2.6 SE 4 9 2 5 1009.2 1009.2 0.0
17/07:30pm 27.7 32.5 23.5 78 2.9 SSE 4 6 2 3 1009.2 1009.2 0.0
17/07:00pm 27.9 30.8 23.1 75 3.3 ESE 13 20 7 11 1009.5 1009.5 0.0
17/06:30pm 31.3 36.2 24.4 66 4.8 SW 6 9 3 5 1009.1 1009.1 0.0
17/06:00pm 31.6 36.4 24.5 66 5.0 WSW 7 15 4 8 1008.3 1008.3 0.0
17/05:30pm 31.6 35.0 24.7 67 4.9 W 15 20 8 11 1008.0 1008.0 0.0
17/05:00pm 32.0 36.6 25.3 67 4.7 W 11 17 6 9 1007.7 1007.7 0.0
17/04:30pm 31.7 35.9 25.3 69 4.5 W 13 24 7 13 1008.1 1008.1 0.0
17/04:00pm 32.4 36.9 25.2 66 5.1 W 11 19 6 10 1008.0 1008.0 0.0
17/03:30pm 32.6 37.5 25.2 65 5.2 W 9 19 5 10 1008.1 1008.1 0.0
17/03:00pm 32.2 36.9 25.5 67 4.8 WNW 11 17 6 9 1008.3 1008.3 0.0
17/02:30pm 32.3 37.3 25.4 67 4.9 W 9 15 5 8 1009.1 1009.1 0.0
17/02:00pm 32.5 37.1 25.3 66 5.1 W 11 20 6 11 1009.6 1009.6 0.0
17/01:30pm 32.5 37.6 25.6 67 4.9 W 9 17 5 9 1010.0 1010.0 0.0
17/01:00pm 32.7 38.0 25.8 67 4.9 W 9 17 5 9 1010.4 1010.4 0.0
17/12:30pm 32.2 37.3 25.0 65 5.1 W 7 15 4 8 1010.7 1010.7 0.0
17/12:00pm 32.1 38.0 25.9 70 4.4 W 6 13 3 7 1011.1 1011.1 0.0
17/11:30am 31.4 37.0 25.5 71 4.2 W 6 7 3 4 1011.3 1011.3 0.0
17/11:00am 31.1 36.7 25.4 71 4.0 W 6 9 3 5 1011.5 1011.5 0.0
17/10:30am 30.9 36.7 25.7 74 3.7 WSW 6 9 3 5 1011.5 1011.5 0.0
17/10:00am 30.7 36.6 25.3 73 3.8 SW 4 7 2 4 1011.6 1011.6 0.0
17/09:30am 30.0 36.0 24.9 74 3.6 W 2 6 1 3 1011.5 1011.5 0.0
17/09:00am 29.1 34.6 25.3 80 2.7 E 6 7 3 4 1011.7 1011.7 3.4
17/08:30am 27.4 32.3 24.3 83 2.1 SE 6 9 3 5 1011.6 1011.6 3.4
17/08:00am 28.9 35.6 25.9 84 2.1 SSW 2 6 1 3 1011.2 1011.2 3.4
17/07:30am 27.7 34.2 25.7 89 1.4 WNW 2 6 1 3 1010.7 1010.7 3.4
17/07:00am 26.9 32.8 25.3 91 1.1 WNW 4 7 2 4 1010.3 1010.3 3.4
17/06:30am 26.0 32.3 25.3 96 0.5 WNW 2 6 1 3 1009.8 1009.8 3.4
17/06:00am 24.9 30.8 24.7 99 0.1 WNW 2 6 1 3 1009.3 1009.3 3.4
17/05:30am 24.7 30.8 24.5 99 0.1 CALM 0 0 0 0 1009.4 1009.4 3.4
17/05:00am 24.7 30.8 24.5 99 0.1 CALM 0 2 0 1 1009.1 1009.1 3.4
17/04:30am 24.0 29.7 23.7 98 0.2 CALM 0 0 0 0 1009.1 1009.1 3.4
17/04:00am 24.2 30.0 23.9 98 0.2 CALM 0 0 0 0 1008.7 1008.7 3.4
17/03:30am 24.2 30.0 23.9 98 0.2 CALM 0 0 0 0 1008.7 1008.7 3.4
17/03:00am 24.4 30.3 24.1 98 0.2 CALM 0 0 0 0 1009.0 1009.0 3.4
17/02:30am 24.5 30.5 24.2 98 0.2 CALM 0 0 0 0 1009.3 1009.3 3.4
17/02:00am 24.5 30.5 24.2 98 0.2 CALM 0 0 0 0 1009.6 1009.6 3.4
17/01:30am 24.6 30.5 24.1 97 0.3 CALM 0 0 0 0 1010.2 1010.2 3.4
17/01:00am 24.7 30.5 24.0 96 0.5 CALM 0 0 0 0 1010.7 1010.7 3.4
17/12:30am 25.1 31.2 24.4 96 0.5 CALM 0 0 0 0 1011.4 1011.4 3.4
17/12:00am 25.3 30.8 24.1 93 0.8 S 2 6 1 3 1011.7 1011.7 3.4
 
Date/Time
CST
Temp
°C
App
Temp
°C
Dew
Point
°C
Rel
Hum
%
Delta-T
°C
Wind Press
QNH
hPa
Press
MSL
hPa
Rain since
9am
mm
Dir  Spd
km/h
Gust
km/h
Spd
kts
Gust
kts
16/11:30pm 25.3 30.4 24.1 93 0.8 E 4 7 2 4 1011.9 1011.9 3.4
16/11:00pm 25.4 30.3 24.4 94 0.7 SE 6 13 3 7 1012.0 1012.0 3.4
16/10:30pm 25.7 30.6 24.7 94 0.7 SE 7 11 4 6 1011.6 1011.6 3.4
16/10:00pm 25.6 30.9 24.4 93 0.8 E 4 4 2 2 1011.3 1011.3 3.4
16/09:30pm 25.3 30.8 24.1 93 0.8 SE 2 4 1 2 1011.1 1011.1 3.4
16/09:00pm 24.9 28.7 22.8 88 1.4 ENE 7 13 4 7 1010.5 1010.5 3.4
16/08:30pm 25.0 29.0 23.1 89 1.3 ESE 7 9 4 5 1010.4 1010.4 3.4
16/08:00pm 25.5 29.9 22.8 85 1.8 S 4 9 2 5 1010.0 1010.0 3.4
16/07:30pm 24.8 27.6 23.6 93 0.8 SSW 15 28 8 15 1010.4 1010.4 3.2
16/07:00pm 27.7 32.4 23.9 80 2.6 ESE 6 9 3 5 1010.0 1010.0 0.0
16/06:30pm 30.3 35.7 25.1 73 3.7 S 6 13 3 7 1009.9 1009.9 0.0
16/06:00pm 30.9 36.0 25.5 73 3.8 W 9 22 5 12 1008.9 1008.9 0.0
16/05:30pm 31.6 36.3 25.5 70 4.3 W 11 20 6 11 1008.0 1008.0 0.0
16/05:00pm 32.4 37.6 25.7 68 4.8 W 9 20 5 11 1008.2 1008.2 0.0
16/04:30pm 32.4 37.8 26.0 69 4.6 WNW 9 20 5 11 1007.8 1007.8 0.0
16/04:00pm 32.4 37.9 26.2 70 4.4 WNW 9 17 5 9 1008.0 1008.0 0.0
16/03:30pm 30.4 35.8 25.5 75 3.5 NW 7 13 4 7 1008.2 1008.2 0.0
16/03:00pm 30.4 36.0 25.5 75 3.5 NW 6 9 3 5 1008.5 1008.5 0.0
16/02:30pm 30.7 36.2 25.3 73 3.8 NW 6 9 3 5 1009.2 1009.2 0.0
16/02:00pm 31.9 37.3 25.2 67 4.7 WNW 6 13 3 7 1010.1 1010.1 0.0
16/01:30pm 32.7 38.0 25.8 67 4.9 WNW 9 17 5 9 1010.5 1010.5 0.0
16/01:00pm 32.4 37.3 25.2 66 5.1 W 9 13 5 7 1011.0 1011.0 0.0
16/12:30pm 32.1 37.4 25.9 70 4.4 WNW 9 15 5 8 1011.2 1011.2 0.0
16/12:00pm 32.3 37.5 25.1 65 5.1 W 7 13 4 7 1011.7 1011.7 0.0
16/11:30am 31.8 37.2 25.4 69 4.5 W 7 11 4 6 1011.9 1011.9 0.0
16/11:00am 31.8 37.5 25.6 69 4.4 WSW 6 9 3 5 1012.2 1012.2 0.0
16/10:30am 32.1 37.7 25.4 67 4.8 W 6 11 3 6 1012.4 1012.4 0.0
16/10:00am 31.4 37.2 25.7 71 4.1 W 6 7 3 4 1012.2 1012.2 0.0
16/09:30am 30.9 36.9 25.5 73 3.8 NW 4 6 2 3 1012.0 1012.0 0.0
16/09:00am 30.3 36.4 25.6 76 3.3 NW 4 9 2 5 1011.8 1011.8 0.0
16/08:30am 29.8 36.8 25.8 79 2.8 CALM 0 0 0 0 1011.5 1011.5 0.0
16/08:00am 29.9 36.9 25.9 79 2.8 CALM 0 0 0 0 1011.2 1011.2 0.0
16/07:30am 28.4 35.0 25.8 86 1.8 WNW 2 4 1 2 1011.1 1011.1 0.0
16/07:00am 28.4 34.9 25.6 85 2.0 WNW 2 7 1 4 1010.9 1010.9 0.0
16/06:30am 28.2 34.8 25.8 87 1.7 WNW 2 6 1 3 1010.8 1010.8 0.0
16/06:00am 27.6 34.6 25.8 90 1.3 CALM 0 2 0 1 1010.8 1010.8 0.0
16/05:30am 27.3 34.2 25.7 91 1.1 CALM 0 0 0 0 1010.6 1010.6 0.0
16/05:00am 27.2 33.8 25.2 89 1.4 CALM 0 0 0 0 1010.4 1010.4 0.0
16/04:30am 27.7 34.2 25.1 86 1.8 CALM 0 0 0 0 1010.2 1010.2 0.0
16/04:00am 28.6 34.9 25.4 83 2.3 NW 2 6 1 3 1010.4 1010.4 0.0
16/03:30am 29.0 34.9 25.4 81 2.5 WNW 4 9 2 5 1010.2 1010.2 0.0
16/03:00am 28.9 34.8 25.3 81 2.5 WNW 4 9 2 5 1010.4 1010.4 0.0
16/02:30am 29.1 34.9 25.7 82 2.4 W 6 11 3 6 1010.6 1010.6 0.0
16/02:00am 29.0 34.7 25.6 82 2.4 WNW 6 9 3 5 1011.1 1011.1 0.0
16/01:30am 29.1 35.0 25.9 83 2.3 W 6 9 3 5 1011.6 1011.6 0.0
16/01:00am 29.1 34.9 25.7 82 2.4 WNW 6 9 3 5 1011.9 1011.9 0.0
16/12:30am 29.1 35.1 26.1 84 2.1 WNW 6 11 3 6 1012.1 1012.1 0.0
16/12:00am 29.1 35.1 26.1 84 2.1 WNW 6 9 3 5 1012.0 1012.0 0.0
 
Date/Time
CST
Temp
°C
App
Temp
°C
Dew
Point
°C
Rel
Hum
%
Delta-T
°C
Wind Press
QNH
hPa
Press
MSL
hPa
Rain since
9am
mm
Dir  Spd
km/h
Gust
km/h
Spd
kts
Gust
kts
15/11:30pm 29.3 35.2 25.9 82 2.4 WNW 6 9 3 5 1012.2 1012.2 0.0
15/11:00pm 29.3 35.3 26.1 83 2.3 WNW 6 9 3 5 1012.1 1012.1 0.0
15/10:30pm 29.4 35.9 26.2 83 2.3 WNW 4 9 2 5 1012.1 1012.1 0.0
15/10:00pm 29.4 35.2 25.8 81 2.6 WNW 6 11 3 6 1011.7 1011.7 0.0
15/09:30pm 29.5 35.4 25.9 81 2.6 WNW 6 11 3 6 1011.4 1011.4 0.0
15/09:00pm 29.5 35.5 26.1 82 2.4 WNW 6 11 3 6 1011.0 1011.0 0.0
15/08:30pm 29.6 35.4 25.8 80 2.7 WNW 6 9 3 5 1011.2 1011.2 0.0
15/08:00pm 29.6 35.7 26.2 82 2.4 WNW 6 9 3 5 1011.1 1011.1 0.0
15/07:30pm 29.8 35.6 25.8 79 2.8 NW 6 11 3 6 1010.8 1010.8 0.0
15/07:00pm 30.3 36.2 26.2 79 2.9 W 7 13 4 7 1010.4 1010.4 0.0
15/06:30pm 30.6 36.3 25.9 76 3.3 WNW 7 11 4 6 1009.6 1009.6 0.0
15/06:00pm 31.8 37.5 25.9 71 4.2 W 7 13 4 7 1009.2 1009.2 0.0
15/05:30pm 32.2 37.8 26.3 71 4.2 W 9 17 5 9 1008.6 1008.6 0.0
15/05:00pm 32.3 38.2 26.8 73 4.0 W 9 17 5 9 1008.5 1008.5 0.0
15/04:30pm 32.2 37.2 26.0 70 4.4 W 11 17 6 9 1008.6 1008.6 0.0
15/04:00pm 32.1 37.3 25.7 69 4.6 W 9 20 5 11 1009.5 1009.5 0.0
15/03:30pm 32.3 37.8 26.1 70 4.4 W 9 19 5 10 1009.8 1009.8 0.0
15/03:00pm 32.2 37.2 26.0 70 4.4 W 11 19 6 10 1010.0 1010.0 0.0
15/02:30pm 32.6 37.7 26.2 69 4.6 W 11 17 6 9 1010.0 1010.0 0.0
15/02:00pm 32.5 38.3 26.6 71 4.2 W 9 17 5 9 1010.4 1010.4 0.0
15/01:30pm 32.3 38.3 26.4 71 4.2 W 7 15 4 8 1010.7 1010.7 0.0
15/01:00pm 32.4 37.9 26.7 72 4.1 WSW 11 17 6 9 1011.2 1011.2 0.0
15/12:30pm 32.3 38.1 26.6 72 4.1 WSW 9 17 5 9 1011.5 1011.5 0.0
15/12:00pm 31.6 37.1 26.2 73 3.9 WSW 9 13 5 7 1011.9 1011.9 0.0
15/11:30am 31.6 37.0 26.6 75 3.6 WSW 11 15 6 8 1012.2 1012.2 0.0
15/11:00am 31.0 36.4 26.0 74 3.6 WSW 9 15 5 8 1012.2 1012.2 0.0
15/10:30am 31.6 36.4 26.2 73 3.9 WSW 13 19 7 10 1012.3 1012.3 0.0
15/10:00am 31.4 36.8 26.0 73 3.9 WSW 9 15 5 8 1012.2 1012.2 0.0
15/09:30am 31.1 37.4 26.8 78 3.1 W 7 13 4 7 1012.1 1012.1 0.0
15/09:00am 29.9 36.2 26.5 82 2.4 W 6 15 3 8 1011.8 1011.8 0.0
15/08:30am 29.3 35.0 25.9 82 2.4 W 7 13 4 7 1011.8 1011.8 0.0
15/08:00am 29.0 34.6 25.8 83 2.3 W 7 13 4 7 1011.4 1011.4 0.0
15/07:30am 28.9 34.2 25.9 84 2.1 W 9 17 5 9 1010.8 1010.8 0.0
15/07:00am 28.8 34.2 26.0 85 2.0 W 9 19 5 10 1010.3 1010.3 0.0
15/06:30am 28.7 34.3 26.3 87 1.7 WNW 9 17 5 9 1009.9 1009.9 0.0
15/06:00am 27.2 33.6 26.7 97 0.4 WNW 6 13 3 7 1009.6 1009.6 0.0
15/05:30am 25.5 31.6 24.5 94 0.7 CALM 0 0 0 0 1009.5 1009.5 0.0
15/05:00am 25.5 31.2 23.7 90 1.2 CALM 0 0 0 0 1009.3 1009.3 0.0
15/04:30am 26.1 31.8 23.8 87 1.6 CALM 0 0 0 0 1009.3 1009.3 0.0
15/04:00am 26.2 31.0 24.1 88 1.4 ENE 6 9 3 5 1009.4 1009.4 0.0
15/03:30am 25.9 31.0 24.1 90 1.2 NE 4 6 2 3 1009.3 1009.3 0.0
15/03:00am 26.1 31.7 24.3 90 1.2 NNW 2 6 1 3 1009.8 1009.8 0.0
15/02:30am 26.4 31.3 24.4 89 1.4 NE 6 9 3 5 1009.9 1009.9 0.0
15/02:00am 28.5 32.8 24.9 81 2.5 ENE 11 26 6 14 1011.0 1011.0 0.0
15/01:30am 28.8 36.0 26.2 86 1.9 CALM 0 6 0 3 1010.9 1010.9 0.0
15/01:00am 28.9 35.3 26.1 85 2.0 WNW 4 6 2 3 1010.5 1010.5 0.0
15/12:30am 29.1 35.0 25.9 83 2.3 WNW 6 9 3 5 1010.8 1010.8 0.0
15/12:00am 29.1 35.4 25.9 83 2.3 WNW 4 9 2 5 1011.0 1011.0 0.0
 
Date/Time
CST
Temp
°C
App
Temp
°C
Dew
Point
°C
Rel
Hum
%
Delta-T
°C
Wind Press
QNH
hPa
Press
MSL
hPa
Rain since
9am
mm
Dir  Spd
km/h
Gust
km/h
Spd
kts
Gust
kts
14/11:30pm 29.2 34.7 25.6 81 2.5 WNW 7 11 4 6 1010.9 1010.9 0.0

Other Formats:

Comma delimited format used in spreadsheet applications
http://www.bom.gov.au/fwo/IDD60801/IDD60801.94116.axf

JavaScript Object Notation format (JSON) in row-major order
http://www.bom.gov.au/fwo/IDD60801/IDD60801.94116.json